Time;durP1;ratioP1;P1;durP2;ratioP2;P2;SDS_P1;SDS_P2;PMS_P1;PMS_P2;Temp;Humidity;BMP_temperature;BMP_pressure;BME280_temperature;BME280_humidity;BME280_pressure;Samples;Min_cycle;Max_cycle;Signal;HPM_P1;HPM_P2
2022/09/20 00:01:24;;;;;;;5.68;2.83;;;;;;;16.81;58.46;102119.25;5090373;28;20472;-65
2022/09/20 00:03:56;;;;;;;10.80;2.85;;;;;;;16.83;58.50;102113.69;5090859;28;20065;-65
2022/09/20 00:06:29;;;;;;;10.48;2.70;;;;;;;16.82;58.87;102111.97;5091104;28;20081;-65
2022/09/20 00:08:56;;;;;;;7.47;2.95;;;;;;;16.82;58.59;102115.56;5075514;28;20037;-65
2022/09/20 00:11:26;;;;;;;7.70;3.50;;;;;;;16.81;58.68;102121.97;5070504;28;20456;-65
2022/09/20 00:13:54;;;;;;;10.48;3.00;;;;;;;16.80;58.86;102106.66;5070602;28;20041;-66
2022/09/20 00:16:27;;;;;;;6.78;3.28;;;;;;;16.79;58.86;102113.06;5070868;28;20098;-65
2022/09/20 00:18:56;;;;;;;5.82;2.90;;;;;;;16.79;58.60;102120.34;5088006;28;20075;-64
2022/09/20 00:21:28;;;;;;;6.15;3.60;;;;;;;16.77;58.75;102114.19;5094564;28;20051;-64
2022/09/20 00:23:57;;;;;;;10.20;2.83;;;;;;;16.78;58.73;102118.63;5094431;28;20044;-65
2022/09/20 00:26:25;;;;;;;7.32;2.90;;;;;;;16.76;58.87;102118.75;5084128;28;20040;-64
2022/09/20 00:28:52;;;;;;;12.20;2.78;;;;;;;16.76;58.91;102123.31;5074323;28;20055;-64
2022/09/20 00:31:19;;;;;;;10.65;3.08;;;;;;;16.74;58.97;102127.97;5073934;28;20041;-64
2022/09/20 00:36:34;;;;;;;8.55;2.63;;;;;;;16.71;58.59;102134.50;5094225;28;20074;-64
2022/09/20 00:39:02;;;;;;;9.88;3.10;;;;;;;16.70;58.68;102137.34;5094301;28;20048;-64
2022/09/20 00:41:30;;;;;;;6.32;2.72;;;;;;;16.67;58.99;102134.84;5094296;28;20047;-64
2022/09/20 00:44:02;;;;;;;8.70;3.30;;;;;;;16.63;59.05;102136.03;5093365;28;20464;-64
2022/09/20 00:46:40;;;;;;;11.10;2.85;;;;;;;16.61;58.74;102127.16;5093912;28;20097;-64
2022/09/20 00:49:20;;;;;;;6.47;2.47;;;;;;;16.59;58.85;102132.69;5094063;28;20040;-64
2022/09/20 00:51:51;;;;;;;14.27;3.15;;;;;;;16.57;58.67;102128.38;5093902;28;20048;-65
2022/09/20 00:54:20;;;;;;;4.78;2.90;;;;;;;16.55;58.77;102125.78;5088051;28;20041;-66
2022/09/20 00:56:47;;;;;;;7.47;2.53;;;;;;;16.57;58.94;102133.78;5073511;28;20056;-65
2022/09/20 00:59:31;;;;;;;7.30;3.22;;;;;;;16.59;59.23;102126.41;5073603;28;20540;-65
2022/09/20 01:02:07;;;;;;;4.50;2.72;;;;;;;16.61;58.88;102119.03;5073298;28;20110;-65
2022/09/20 01:04:37;;;;;;;11.23;3.42;;;;;;;16.62;59.38;102129.75;5079711;28;20417;-64
2022/09/20 01:07:06;;;;;;;13.95;3.63;;;;;;;16.61;58.85;102124.44;5093844;28;20044;-65
2022/09/20 01:09:33;;;;;;;8.68;3.45;;;;;;;16.59;58.96;102129.13;5093747;28;20485;-65
2022/09/20 01:12:04;;;;;;;5.30;3.55;;;;;;;16.55;59.36;102128.50;5075134;28;20455;-65
2022/09/20 01:14:32;;;;;;;10.52;3.72;;;;;;;16.53;59.04;102127.75;5086759;28;20045;-65
2022/09/20 01:17:04;;;;;;;9.20;3.67;;;;;;;16.51;59.11;102129.69;5073300;28;20345;-65
2022/09/20 01:19:57;;;;;;;10.23;3.90;;;;;;;16.50;59.57;102133.41;5055267;28;20391;-65
2022/09/20 01:23:03;;;;;;;9.07;4.10;;;;;;;16.47;59.46;102123.66;5073013;28;20423;-64
2022/09/20 01:25:55;;;;;;;7.43;4.43;;;;;;;16.46;59.61;102126.47;5081411;28;20048;-65
2022/09/20 01:28:22;;;;;;;8.95;4.20;;;;;;;16.45;59.45;102125.59;5093463;28;20062;-64
2022/09/20 01:31:28;;;;;;;9.10;4.70;;;;;;;16.42;59.26;102136.69;5092600;28;20094;-65
2022/09/20 01:34:00;;;;;;;8.63;4.88;;;;;;;16.41;59.36;102128.66;5093115;28;20040;-64
2022/09/20 01:36:41;;;;;;;6.15;4.40;;;;;;;16.39;59.47;102136.06;5073217;28;20411;-65
2022/09/20 01:39:26;;;;;;;8.63;4.22;;;;;;;16.36;59.45;102128.16;5072796;28;20067;-65
2022/09/20 01:41:57;;;;;;;9.35;4.32;;;;;;;16.31;59.42;102125.75;5072834;28;20094;-65
2022/09/20 01:44:32;;;;;;;11.35;4.95;;;;;;;16.29;59.43;102130.41;5088262;28;20448;-65
2022/09/20 01:47:09;;;;;;;12.63;4.82;;;;;;;16.27;59.45;102116.13;5093078;28;20449;-66
2022/09/20 01:50:09;;;;;;;10.90;4.95;;;;;;;16.26;59.45;102130.66;5092848;28;20101;-65
2022/09/20 01:52:59;;;;;;;7.05;4.70;;;;;;;16.29;59.75;102124.13;5090566;28;20036;-64
2022/09/20 01:55:47;;;;;;;11.70;4.65;;;;;;;16.28;59.97;102125.97;5072180;28;20094;-65
2022/09/20 01:59:01;;;;;;;10.85;4.95;;;;;;;16.25;59.59;102128.06;5072904;28;20071;-65
2022/09/20 02:02:19;;;;;;;9.45;5.25;;;;;;;16.20;59.76;102123.84;5072270;28;20161;-65
2022/09/20 02:05:22;;;;;;;8.43;4.88;;;;;;;16.22;59.76;102134.56;5091412;28;20048;-65
2022/09/20 02:07:54;;;;;;;10.73;4.97;;;;;;;16.20;59.81;102129.25;5092575;28;20457;-65
2022/09/20 02:10:31;;;;;;;10.23;5.00;;;;;;;16.23;59.71;102132.72;5092478;28;20043;-66
2022/09/20 02:13:05;;;;;;;7.32;4.30;;;;;;;16.23;60.06;102132.72;5091116;28;20044;-66
2022/09/20 02:16:02;;;;;;;11.50;5.28;;;;;;;16.23;60.02;102135.44;5092981;28;20087;-65
2022/09/20 02:19:06;;;;;;;10.38;5.00;;;;;;;16.25;60.01;102133.47;5078770;28;20056;-65
2022/09/20 02:21:54;;;;;;;10.40;4.38;;;;;;;16.23;59.74;102135.44;5092070;28;20117;-66
2022/09/20 02:24:44;;;;;;;8.40;4.53;;;;;;;16.21;60.27;102143.69;5073990;28;20049;-65
2022/09/20 02:27:17;;;;;;;8.27;4.55;;;;;;;16.21;59.87;102136.41;5054187;28;20036;-65
2022/09/20 02:29:51;;;;;;;8.38;4.20;;;;;;;16.19;59.97;102124.81;5054072;28;20552;-65
2022/09/20 02:32:46;;;;;;;9.82;4.38;;;;;;;16.19;59.86;102132.09;5054246;28;20045;-65
2022/09/20 02:35:27;;;;;;;7.85;4.28;;;;;;;16.21;59.89;102127.41;5071933;28;20052;-65
2022/09/20 02:38:04;;;;;;;11.30;4.35;;;;;;;16.20;59.86;102126.56;5071970;28;20040;-65
2022/09/20 02:40:48;;;;;;;9.30;4.18;;;;;;;16.19;59.97;102115.81;5071644;28;20403;-65
2022/09/20 02:43:21;;;;;;;8.45;3.92;;;;;;;16.16;59.94;102106.06;5070690;28;20044;-65
2022/09/20 02:46:00;;;;;;;9.27;4.00;;;;;;;16.15;60.15;102112.47;5071633;28;20090;-64
2022/09/20 02:48:38;;;;;;;12.23;4.13;;;;;;;16.15;60.07;102107.06;5071583;28;20102;-65
2022/09/20 02:51:18;;;;;;;8.50;4.18;;;;;;;16.16;59.84;102114.22;5088864;28;20097;-65
2022/09/20 02:54:03;;;;;;;11.65;4.38;;;;;;;16.16;60.08;102111.50;5091616;28;20043;-64
2022/09/20 02:56:58;;;;;;;7.38;3.88;;;;;;;16.16;59.87;102116.06;5091747;28;20196;-64
2022/09/20 02:59:28;;;;;;;7.55;4.03;;;;;;;16.15;60.23;102112.47;5087697;28;20490;-65
2022/09/20 03:02:23;;;;;;;7.35;4.18;;;;;;;16.14;60.10;102115.31;5071426;28;20049;-64
2022/09/20 03:05:21;;;;;;;10.77;4.68;;;;;;;16.16;60.08;102121.47;5071434;28;20110;-65
2022/09/20 03:08:13;;;;;;;10.52;4.30;;;;;;;16.18;59.98;102119.50;5071442;28;20526;-65
2022/09/20 03:11:12;;;;;;;7.50;4.15;;;;;;;16.18;60.11;102122.22;5035928;28;20106;-65
2022/09/20 03:13:59;;;;;;;9.70;4.55;;;;;;;16.19;60.22;102123.97;5071212;28;20082;-65
2022/09/20 03:16:31;;;;;;;9.93;4.20;;;;;;;16.18;60.26;102125.81;5071315;28;20049;-65
2022/09/20 03:19:35;;;;;;;9.52;4.80;;;;;;;16.14;60.03;102124.28;5071683;28;20075;-65
2022/09/20 03:22:18;;;;;;;9.00;3.88;;;;;;;16.14;59.92;102126.13;5071050;28;20040;-65
2022/09/20 03:24:55;;;;;;;5.80;3.55;;;;;;;16.12;60.11;102128.09;5071373;28;20115;-65
2022/09/20 03:27:31;;;;;;;7.97;4.18;;;;;;;16.07;60.25;102125.72;5071114;28;20079;-65
2022/09/20 03:30:18;;;;;;;11.98;4.20;;;;;;;16.06;59.86;102129.41;5079825;28;20125;-64
2022/09/20 03:33:03;;;;;;;11.93;4.10;;;;;;;16.04;60.03;102119.69;5091017;28;20444;-65
2022/09/20 03:35:36;;;;;;;7.22;3.58;;;;;;;16.04;60.08;102122.38;5091360;28;20044;-65
2022/09/20 03:38:21;;;;;;;12.75;4.47;;;;;;;16.05;60.01;102126.81;5091188;28;20315;-65
2022/09/20 03:41:06;;;;;;;8.55;3.83;;;;;;;16.06;60.22;102121.28;5056364;28;20364;-65
2022/09/20 03:43:54;;;;;;;7.63;3.70;;;;;;;16.07;59.94;102124.88;5053187;28;20040;-65
2022/09/20 03:46:28;;;;;;;9.13;3.97;;;;;;;16.07;59.87;102120.31;5070927;28;20086;-64
2022/09/20 03:49:32;;;;;;;9.40;4.00;;;;;;;16.04;60.16;102130.50;5071173;28;20090;-65
2022/09/20 03:52:18;;;;;;;7.95;3.15;;;;;;;16.06;59.82;102125.84;5052905;28;20049;-64
2022/09/20 03:55:21;;;;;;;7.32;3.38;;;;;;;16.04;60.24;102127.81;5072884;28;20071;-64
2022/09/20 03:57:48;;;;;;;5.60;3.50;;;;;;;16.06;60.20;102129.41;5075120;28;20082;-65
2022/09/20 04:00:33;;;;;;;8.85;3.30;;;;;;;16.09;60.08;102133.75;5074906;28;20337;-65
2022/09/20 04:03:28;;;;;;;7.25;3.25;;;;;;;16.07;60.13;102125.72;5094795;28;20048;-65
2022/09/20 04:05:55;;;;;;;11.05;3.70;;;;;;;16.08;60.22;102123.88;5077248;28;20113;-65
2022/09/20 04:09:00;;;;;;;11.02;3.63;;;;;;;16.06;60.25;102126.72;5064362;28;20044;-65
2022/09/20 04:11:36;;;;;;;8.85;3.40;;;;;;;16.10;59.97;102124.63;5074684;28;20118;-65
2022/09/20 04:14:22;;;;;;;9.10;3.50;;;;;;;16.13;60.02;102132.53;5040101;28;20097;-65
2022/09/20 04:17:17;;;;;;;6.57;3.00;;;;;;;16.13;60.31;102129.84;5074670;28;20044;-65
2022/09/20 04:19:50;;;;;;;8.37;3.27;;;;;;;16.13;59.76;102127.13;5056429;28;20033;-65
2022/09/20 04:22:21;;;;;;;6.82;3.28;;;;;;;16.13;59.76;102124.41;5074426;28;20044;-65
2022/09/20 04:25:39;;;;;;;7.53;3.08;;;;;;;16.12;59.95;102128.09;5056339;28;20049;-65
2022/09/20 04:28:24;;;;;;;8.48;3.22;;;;;;;16.13;60.03;102136.13;5032065;28;20094;-65
2022/09/20 04:30:58;;;;;;;9.63;2.80;;;;;;;16.13;59.83;102129.84;5074152;28;20040;-65
2022/09/20 04:33:38;;;;;;;9.35;2.70;;;;;;;16.10;60.08;102125.50;5073956;28;20048;-64
2022/09/20 04:36:28;;;;;;;5.22;2.58;;;;;;;16.10;60.18;102132.78;5080507;28;20093;-65
2022/09/20 04:39:00;;;;;;;9.10;2.60;;;;;;;16.06;59.68;102129.41;5094646;28;20040;-65
2022/09/20 04:42:08;;;;;;;5.32;2.58;;;;;;;16.04;60.07;102131.38;5094187;28;20511;-65
2022/09/20 04:45:06;;;;;;;5.82;2.60;;;;;;;16.05;60.02;102124.13;5076159;28;20052;-65
2022/09/20 04:47:58;;;;;;;7.65;2.80;;;;;;;16.05;59.66;102134.94;5057296;28;20032;-64
2022/09/20 04:50:49;;;;;;;4.03;2.33;;;;;;;16.02;59.89;102127.06;5073828;28;20061;-64
2022/09/20 04:53:52;;;;;;;6.40;2.55;;;;;;;15.97;59.55;102140.06;5073717;28;20040;-65
2022/09/20 04:56:27;;;;;;;5.15;2.50;;;;;;;15.93;59.46;102139.44;5074785;28;20494;-64
2022/09/20 04:59:05;;;;;;;8.55;3.40;;;;;;;15.89;59.71;102143.34;5073871;28;20036;-64
2022/09/20 05:02:02;;;;;;;5.07;2.92;;;;;;;15.89;60.00;102144.22;5073501;28;20132;-65
2022/09/20 05:04:54;;;;;;;5.50;2.88;;;;;;;15.89;59.59;102151.47;5061699;28;20130;-64
2022/09/20 05:07:23;;;;;;;4.78;2.90;;;;;;;15.88;59.55;102147.91;5075069;28;20036;-65
2022/09/20 05:09:59;;;;;;;6.97;3.00;;;;;;;15.86;59.66;102147.13;5075394;28;20071;-64
2022/09/20 05:12:41;;;;;;;8.55;3.15;;;;;;;15.85;59.81;102148.13;5093305;28;20036;-64
2022/09/20 05:15:35;;;;;;;6.47;2.70;;;;;;;15.82;59.83;102153.75;5081455;28;20072;-64
2022/09/20 05:18:26;;;;;;;4.35;2.60;;;;;;;15.81;59.76;102149.31;5051941;28;20103;-64
2022/09/20 05:21:07;;;;;;;7.57;2.55;;;;;;;15.83;60.10;102151.91;5053275;28;20037;-65
2022/09/20 05:24:06;;;;;;;10.30;2.60;;;;;;;15.83;59.87;102151.91;5053205;28;20045;-65
2022/09/20 05:27:02;;;;;;;4.63;2.20;;;;;;;15.81;59.90;102152.03;5053167;28;20114;-64
2022/09/20 05:29:59;;;;;;;8.23;2.50;;;;;;;15.81;59.75;102156.56;5053295;28;20045;-64
2022/09/20 05:32:49;;;;;;;6.05;2.70;;;;;;;15.78;59.65;102152.25;5051674;28;20051;-64
2022/09/20 05:35:28;;;;;;;7.35;2.80;;;;;;;15.76;59.61;102150.63;5064028;28;20048;-64
2022/09/20 05:38:03;;;;;;;7.45;3.00;;;;;;;15.73;60.11;102158.97;5071892;28;20040;-64
2022/09/20 05:40:48;;;;;;;;;;;;;;;15.69;59.79;102163.75;5073205;28;20087;-64
2022/09/20 05:43:44;;;;;;;4.78;2.80;;;;;;;15.70;59.83;102164.59;5073062;28;20340;-64
2022/09/20 05:46:25;;;;;;;3.65;2.53;;;;;;;15.65;59.51;102166.78;5070859;28;20572;-65
2022/09/20 05:49:03;;;;;;;3.85;2.40;;;;;;;15.62;59.68;102170.56;5072827;28;20044;-65
2022/09/20 05:51:47;;;;;;;3.25;2.15;;;;;;;15.57;59.41;102162.75;5071304;28;20054;-67
2022/09/20 05:54:51;;;;;;;4.65;2.67;;;;;;;15.56;59.36;102176.38;5069597;28;20094;-65
2022/09/20 05:57:39;;;;;;;9.27;2.60;;;;;;;15.56;59.35;102176.38;5072720;28;20040;-64
2022/09/20 06:00:17;;;;;;;6.40;2.80;;;;;;;15.52;59.47;102175.72;5072554;28;20049;-65
2022/09/20 06:03:21;;;;;;;7.35;2.88;;;;;;;15.51;59.43;102181.25;5072164;28;20079;-64
2022/09/20 06:06:13;;;;;;;9.15;3.03;;;;;;;15.50;59.49;102179.50;5050551;28;20045;-64
2022/09/20 06:08:50;;;;;;;7.72;3.08;;;;;;;15.49;59.56;102185.91;5052471;28;20033;-65
2022/09/20 06:11:37;;;;;;;5.10;2.58;;;;;;;15.47;59.50;102188.72;5052397;28;20049;-67
2022/09/20 06:14:19;;;;;;;8.07;2.90;;;;;;;15.47;59.72;102191.41;5052229;28;20049;-66
2022/09/20 06:17:10;;;;;;;8.38;2.88;;;;;;;15.47;59.41;102195.97;5052375;28;20048;-65
2022/09/20 06:19:47;;;;;;;8.77;3.60;;;;;;;15.46;59.93;102192.38;5052065;28;20041;-66
2022/09/20 06:22:36;;;;;;;7.32;3.35;;;;;;;15.48;59.81;102192.28;5051981;28;20064;-66
2022/09/20 06:25:09;;;;;;;6.63;4.05;;;;;;;15.51;60.09;102197.47;5053298;28;20045;-67
2022/09/20 06:27:44;;;;;;;7.07;3.78;;;;;;;15.55;60.09;102182.75;5052035;28;20045;-66
2022/09/20 06:30:35;;;;;;;10.60;3.55;;;;;;;15.60;60.14;102190.59;5052391;28;20036;-66
2022/09/20 06:33:04;;;;;;;8.23;4.20;;;;;;;15.67;60.45;102189.22;5051725;28;20056;-66
2022/09/20 06:35:55;;;;;;;8.25;3.72;;;;;;;15.73;60.40;102191.47;5054499;28;20033;-66
2022/09/20 06:41:27;;;;;;;9.52;4.43;;;;;;;15.89;60.66;102203.81;5062985;28;20033;-66
2022/09/20 06:44:00;;;;;;;8.50;4.40;;;;;;;15.95;60.91;102199.78;5052180;28;20517;-67
2022/09/20 06:46:29;;;;;;;10.55;3.95;;;;;;;16.00;61.02;102202.16;5051665;28;20135;-66
2022/09/20 06:48:56;;;;;;;6.93;3.65;;;;;;;16.06;61.16;102202.59;5052604;28;20384;-65
2022/09/20 06:51:25;;;;;;;6.18;3.28;;;;;;;16.12;60.74;102193.16;5071664;28;20049;-66
2022/09/20 06:53:56;;;;;;;5.80;3.20;;;;;;;16.16;60.87;102200.06;5071011;28;20055;-66
2022/09/20 06:56:25;;;;;;;8.13;3.40;;;;;;;16.23;60.96;102204.06;5070425;28;20309;-66
2022/09/20 06:58:53;;;;;;;7.55;3.30;;;;;;;16.31;60.87;102206.22;5072055;28;20033;-66
2022/09/20 07:01:20;;;;;;;6.90;3.40;;;;;;;16.37;60.93;102209.38;5069966;28;20090;-66
2022/09/20 07:04:00;;;;;;;5.90;2.70;;;;;;;16.44;60.93;102204.34;5071030;28;20414;-66
2022/09/20 07:06:27;;;;;;;8.20;3.72;;;;;;;16.51;60.87;102205.63;5071524;28;20048;-67
2022/09/20 07:08:54;;;;;;;7.68;3.60;;;;;;;16.58;60.65;102203.31;5071581;28;20055;-66
2022/09/20 07:11:22;;;;;;;9.82;4.25;;;;;;;16.61;60.61;102206.69;5071162;28;20044;-66
2022/09/20 07:13:55;;;;;;;9.05;3.65;;;;;;;16.65;60.78;102212.75;5071279;28;20037;-66
2022/09/20 07:16:21;;;;;;;5.53;3.40;;;;;;;16.67;60.74;102208.97;5051682;28;20048;-66
2022/09/20 07:18:50;;;;;;;6.30;3.00;;;;;;;16.74;60.36;102215.66;5066365;28;20044;-65
2022/09/20 07:21:19;;;;;;;5.05;3.15;;;;;;;16.85;60.83;102214.84;5071338;28;20453;-65
2022/09/20 07:23:50;;;;;;;7.38;2.72;;;;;;;16.99;60.93;102214.66;5083151;28;20041;-66
2022/09/20 07:26:28;;;;;;;6.30;2.92;;;;;;;17.17;60.47;102212.41;5070934;28;20487;-66
2022/09/20 07:28:56;;;;;;;7.32;2.95;;;;;;;17.33;60.17;102212.09;5076330;28;20097;-65
2022/09/20 07:31:25;;;;;;;4.57;2.95;;;;;;;17.45;60.08;102213.84;5070895;28;20037;-66
2022/09/20 07:33:54;;;;;;;4.47;2.67;;;;;;;17.57;60.04;102222.88;5087291;28;20093;-66
2022/09/20 07:36:21;;;;;;;7.65;3.55;;;;;;;17.71;60.21;102223.53;5072692;28;20036;-66
2022/09/20 07:38:49;;;;;;;3.65;2.90;;;;;;;17.85;59.58;102222.47;5081194;28;20098;-66
2022/09/20 07:41:21;;;;;;;6.15;3.22;;;;;;;17.99;59.39;102224.09;5070651;28;20106;-66
2022/09/20 07:43:49;;;;;;;5.28;2.72;;;;;;;18.15;59.44;102224.56;5075534;28;20063;-66
2022/09/20 07:46:16;;;;;;;7.53;2.60;;;;;;;18.32;59.08;102224.06;5091118;28;20123;-66
2022/09/20 07:48:43;;;;;;;6.25;2.75;;;;;;;18.45;58.85;102225.78;5090414;28;20494;-66
2022/09/20 07:51:12;;;;;;;7.43;2.70;;;;;;;18.55;58.86;102230.31;5090041;28;20036;-66
2022/09/20 07:53:43;;;;;;;5.43;2.70;;;;;;;18.65;58.20;102228.63;5090935;28;20499;-65
2022/09/20 07:56:12;;;;;;;4.45;2.60;;;;;;;18.78;57.98;102233.03;5084625;28;20380;-65
2022/09/20 07:58:39;;;;;;;8.82;2.92;;;;;;;18.87;57.98;102229.56;5077992;28;20033;-66
2022/09/20 08:01:09;;;;;;;4.60;2.65;;;;;;;18.96;57.36;102235.09;5070626;28;20105;-66
2022/09/20 08:03:41;;;;;;;6.38;2.67;;;;;;;19.07;57.07;102231.44;5070473;28;20044;-66
2022/09/20 08:06:10;;;;;;;7.20;2.70;;;;;;;19.19;57.30;102234.97;5071634;28;20036;-66
2022/09/20 08:08:39;;;;;;;8.60;2.70;;;;;;;19.31;56.99;102233.94;5070396;28;20033;-66
2022/09/20 08:11:08;;;;;;;6.35;2.05;;;;;;;19.42;56.34;102231.16;5059184;28;20105;-66
2022/09/20 08:13:42;;;;;;;6.07;3.05;;;;;;;19.53;56.20;102235.72;5090826;28;20036;-69
2022/09/20 08:16:30;;;;;;;4.78;2.63;;;;;;;19.61;56.19;102230.47;5090752;28;20107;-68
2022/09/20 08:19:00;;;;;;;6.95;2.63;;;;;;;19.64;56.06;102230.19;5090697;28;20623;-68
2022/09/20 08:21:32;;;;;;;7.75;2.30;;;;;;;19.65;55.46;102230.06;5090314;28;20113;-68
2022/09/20 08:24:03;;;;;;;6.05;2.38;;;;;;;19.66;55.50;102229.06;5090484;28;20452;-68
2022/09/20 08:26:30;;;;;;;5.82;2.08;;;;;;;19.68;55.17;102235.25;5090359;28;20041;-68
2022/09/20 08:28:58;;;;;;;7.30;2.45;;;;;;;19.71;54.89;102239.56;5090695;28;20127;-68
2022/09/20 08:31:30;;;;;;;5.53;1.92;;;;;;;19.71;54.67;102241.44;5090322;28;20072;-68
2022/09/20 08:33:57;;;;;;;5.90;2.08;;;;;;;19.67;54.49;102236.25;5072589;28;20052;-68
2022/09/20 08:36:25;;;;;;;4.68;2.30;;;;;;;19.64;54.42;102239.25;5090353;28;20350;-68
2022/09/20 08:38:52;;;;;;;5.78;2.38;;;;;;;19.63;54.47;102236.66;5090769;28;20489;-67
2022/09/20 08:41:57;;;;;;;9.00;2.40;;;;;;;19.65;54.01;102240.09;5073374;28;20130;-68
2022/09/20 08:44:34;;;;;;;7.22;2.35;;;;;;;19.62;53.92;102243.97;5094111;28;20044;-68
2022/09/20 08:47:15;;;;;;;7.82;1.90;;;;;;;19.63;53.99;102239.38;5094075;28;20070;-68
2022/09/20 08:49:42;;;;;;;6.63;2.00;;;;;;;19.63;53.74;102245.69;5075991;28;20502;-68
2022/09/20 08:52:29;;;;;;;8.10;2.15;;;;;;;19.62;53.47;102257.59;5093618;28;20054;-68
2022/09/20 08:55:12;;;;;;;7.82;2.63;;;;;;;19.65;53.55;102254.59;5094059;28;20135;-68
2022/09/20 08:57:38;;;;;;;4.03;2.00;;;;;;;19.66;53.41;102256.31;5093701;28;20093;-68
2022/09/20 09:00:06;;;;;;;6.63;2.22;;;;;;;19.69;53.58;102260.63;5093916;28;20113;-68
2022/09/20 09:02:33;;;;;;;8.50;2.53;;;;;;;19.75;53.64;102254.66;5093195;28;20272;-68
2022/09/20 09:05:32;;;;;;;7.60;1.90;;;;;;;19.81;53.21;102255.97;5093836;28;20040;-68
2022/09/20 09:08:03;;;;;;;5.60;1.77;;;;;;;19.82;53.21;102255.84;5093675;28;20097;-67
2022/09/20 09:10:35;;;;;;;5.55;1.80;;;;;;;19.84;52.93;102263.88;5093734;28;20044;-68
2022/09/20 09:13:18;;;;;;;5.38;1.60;;;;;;;19.85;52.53;102262.88;5093161;28;20068;-68
2022/09/20 09:15:52;;;;;;;5.57;1.40;;;;;;;19.87;52.44;102259.03;5075552;28;20039;-67
2022/09/20 09:18:18;;;;;;;8.07;1.80;;;;;;;19.88;52.15;102263.47;5093287;28;20117;-68
2022/09/20 09:20:46;;;;;;;6.38;1.30;;;;;;;19.86;52.08;102260.03;5075715;28;20490;-68
2022/09/20 09:23:25;;;;;;;4.40;1.42;;;;;;;19.84;51.59;102256.56;5092758;28;20040;-68
2022/09/20 09:25:55;;;;;;;4.13;1.40;;;;;;;19.84;51.74;102261.16;5093144;28;20040;-68
2022/09/20 09:28:24;;;;;;;4.82;1.33;;;;;;;19.81;52.01;102266.88;5093280;28;20479;-68
2022/09/20 09:30:51;;;;;;;8.50;2.38;;;;;;;19.80;51.83;102271.47;5093275;28;20085;-68
2022/09/20 09:33:49;;;;;;;4.15;1.33;;;;;;;19.77;52.11;102266.28;5092839;28;20044;-68
2022/09/20 09:36:22;;;;;;;7.45;2.00;;;;;;;19.71;52.15;102268.69;5093009;28;20407;-68
2022/09/20 09:38:49;;;;;;;9.00;1.95;;;;;;;19.62;52.32;102265.75;5093155;28;20048;-68
2022/09/20 09:41:31;;;;;;;6.05;1.30;;;;;;;19.51;52.50;102275.84;5092896;28;20040;-68
2022/09/20 09:44:08;;;;;;;4.55;1.50;;;;;;;19.42;52.38;102277.50;5092835;28;20048;-68
2022/09/20 09:46:37;;;;;;;6.25;1.55;;;;;;;19.35;52.45;102273.56;5092484;28;20109;-68
2022/09/20 09:49:19;;;;;;;4.07;1.10;;;;;;;19.29;52.71;102279.50;5092962;28;20058;-67
2022/09/20 09:52:12;;;;;;;6.22;1.25;;;;;;;19.20;52.70;102278.44;5092056;28;20048;-68
2022/09/20 09:54:52;;;;;;;6.88;1.33;;;;;;;19.16;52.72;102287.00;5092912;28;20044;-68
2022/09/20 09:57:31;;;;;;;5.60;1.33;;;;;;;19.12;52.92;102288.25;5092461;28;20070;-67
2022/09/20 10:00:16;;;;;;;2.88;1.52;;;;;;;19.07;52.40;102287.75;5092738;28;20563;-68
2022/09/20 10:03:03;;;;;;;4.50;1.08;;;;;;;18.99;52.53;102281.09;5091877;28;20097;-68
2022/09/20 10:05:45;;;;;;;2.85;0.77;;;;;;;18.94;52.45;102282.50;5074562;28;20047;-68
2022/09/20 10:08:23;;;;;;;2.35;0.52;;;;;;;18.88;52.03;102281.13;5074505;28;20057;-67
2022/09/20 10:11:09;;;;;;;2.92;0.82;;;;;;;18.79;51.46;102290.06;5092514;28;20551;-68
2022/09/20 10:14:04;;;;;;;3.65;1.38;;;;;;;18.74;51.60;102292.31;5092222;28;20048;-68
2022/09/20 10:17:04;;;;;;;2.73;0.80;;;;;;;18.72;51.54;102288.84;5092358;28;20044;-68
2022/09/20 10:19:49;;;;;;;3.10;1.05;;;;;;;18.71;51.44;102284.41;5092559;28;20032;-67
2022/09/20 10:22:22;;;;;;;2.50;0.90;;;;;;;18.71;51.75;102287.13;5091892;28;20453;-68
2022/09/20 10:25:10;;;;;;;7.32;0.95;;;;;;;18.71;51.97;102288.00;5092276;28;20047;-68
2022/09/20 10:28:07;;;;;;;4.30;1.05;;;;;;;18.76;51.94;102284.03;5092039;28;20040;-67
2022/09/20 10:30:51;;;;;;;2.08;0.73;;;;;;;18.84;51.98;102289.69;5091681;28;20047;-68
2022/09/20 10:33:25;;;;;;;6.45;0.80;;;;;;;18.88;52.36;102286.59;5091659;28;20094;-67
2022/09/20 10:36:16;;;;;;;7.10;1.45;;;;;;;18.93;52.06;102286.19;5074065;28;20052;-68
2022/09/20 10:39:04;;;;;;;2.92;0.90;;;;;;;18.98;52.03;102287.53;5092203;28;20375;-67
2022/09/20 10:45:23;;;;;;;5.55;0.88;;;;;;;19.08;52.09;102281.31;5076382;28;20109;-68
2022/09/20 10:48:31;;;;;;;9.20;1.17;;;;;;;19.10;52.11;102285.66;5091627;28;20093;-67
2022/09/20 10:51:05;;;;;;;3.90;1.02;;;;;;;19.13;52.22;102288.09;5090052;28;20394;-68
2022/09/20 10:53:53;;;;;;;2.58;0.88;;;;;;;19.15;51.88;102283.41;5091207;28;20056;-68
2022/09/20 10:56:35;;;;;;;2.78;0.88;;;;;;;19.20;52.10;102289.31;5091543;28;20452;-68
2022/09/20 10:59:21;;;;;;;3.42;0.80;;;;;;;19.27;51.85;102289.66;5087131;28;20056;-67
2022/09/20 11:01:56;;;;;;;3.15;0.80;;;;;;;19.36;52.00;102283.47;5086801;28;20482;-67
2022/09/20 11:04:48;;;;;;;3.33;0.77;;;;;;;19.42;51.80;102288.38;5090498;28;20048;-67
2022/09/20 11:07:55;;;;;;;6.47;0.93;;;;;;;19.47;51.54;102283.41;5087482;28;20213;-67
2022/09/20 11:10:24;;;;;;;;;;;;;;;19.56;51.80;102287.22;5092019;28;20036;-68
2022/09/20 11:13:07;;;;;;;5.47;1.10;;;;;;;19.70;51.50;102292.34;5073110;28;19927;-68
2022/09/20 11:15:53;;;;;;;3.85;1.00;;;;;;;19.84;51.75;102300.19;5071673;28;20098;-68
2022/09/20 11:18:43;;;;;;;4.25;1.13;;;;;;;19.98;51.08;102293.53;5090899;28;20124;-67
2022/09/20 11:21:26;;;;;;;3.90;0.90;;;;;;;20.10;51.26;102292.47;5091180;28;20060;-67
2022/09/20 11:24:10;;;;;;;5.47;1.15;;;;;;;20.24;51.05;102296.69;5091287;28;20071;-68
2022/09/20 11:26:43;;;;;;;3.30;0.73;;;;;;;20.33;50.93;102301.34;5090844;28;20052;-67
2022/09/20 11:29:19;;;;;;;5.07;1.05;;;;;;;20.40;50.60;102290.78;5089418;28;20040;-68
2022/09/20 11:31:49;;;;;;;3.63;0.90;;;;;;;20.40;50.05;102296.22;5090824;28;20449;-69
2022/09/20 11:34:31;;;;;;;2.88;1.08;;;;;;;20.41;49.85;102301.53;5091357;28;20078;-69
2022/09/20 11:37:01;;;;;;;5.28;0.90;;;;;;;20.45;49.70;102300.28;5091019;28;20568;-68
2022/09/20 11:39:47;;;;;;;2.40;0.70;;;;;;;20.43;48.87;102301.41;5090712;28;20044;-68
2022/09/20 11:42:19;;;;;;;3.88;1.05;;;;;;;20.39;48.61;102311.72;5070668;28;20045;-68
2022/09/20 11:44:47;;;;;;;3.78;1.00;;;;;;;20.35;48.03;102304.78;5070753;28;20098;-68
2022/09/20 11:47:46;;;;;;;3.25;0.63;;;;;;;20.24;46.98;102305.75;5070460;28;20061;-67
2022/09/20 11:51:09;;;;;;;2.33;0.57;;;;;;;20.21;46.76;102307.88;5057221;28;20138;-68
2022/09/20 11:54:00;;;;;;;3.85;0.90;;;;;;;20.22;46.73;102306.88;5040976;28;20049;-68
2022/09/20 11:56:30;;;;;;;2.83;0.77;;;;;;;20.24;46.80;102296.69;5052903;28;20449;-67
2022/09/20 11:58:59;;;;;;;3.42;0.73;;;;;;;20.22;46.63;102298.69;5070686;28;20036;-68
2022/09/20 12:01:36;;;;;;;2.60;0.70;;;;;;;20.23;46.68;102304.03;5070572;28;20280;-68
2022/09/20 12:04:25;;;;;;;3.22;0.70;;;;;;;20.27;46.34;102296.44;5071433;28;20090;-68
2022/09/20 12:07:02;;;;;;;4.63;0.82;;;;;;;20.35;46.50;102298.47;5070450;28;20037;-68
2022/09/20 12:09:39;;;;;;;3.97;0.85;;;;;;;20.41;46.37;102296.09;5070263;28;20474;-68
2022/09/20 12:12:21;;;;;;;2.03;0.60;;;;;;;20.54;46.21;102295.84;5071481;28;20090;-67
2022/09/20 12:14:57;;;;;;;3.95;0.90;;;;;;;20.65;46.40;102308.53;5070671;28;20037;-68
2022/09/20 12:17:45;;;;;;;2.90;0.82;;;;;;;20.69;45.93;102297.19;5074012;28;20510;-68
2022/09/20 12:20:31;;;;;;;3.25;0.60;;;;;;;20.70;45.92;102298.03;5056371;28;20406;-67
2022/09/20 12:23:49;;;;;;;3.80;0.60;;;;;;;20.69;45.81;102283.53;5074901;28;20032;-67
2022/09/20 12:26:21;;;;;;;2.92;0.75;;;;;;;20.69;45.78;102277.22;5029447;28;20044;-68
2022/09/20 12:28:49;;;;;;;4.82;0.88;;;;;;;20.69;45.53;102278.06;5074146;28;20094;-67
2022/09/20 12:31:24;;;;;;;1.95;0.70;;;;;;;20.73;45.66;102284.13;5074605;28;20044;-67
2022/09/20 12:34:10;;;;;;;4.35;0.63;;;;;;;20.82;45.48;102275.13;5090990;28;20093;-67